Погода Хшенснена неделю

Мазовецкое воеводство, Польша

18 - 24 июля
  • 18июля
    Сегодня
    +14°
    +27°
    Облачно с прояснениями
    ВремяПогодаТемператураВлажностьДавлениеВетер, м/сВероятность осадков
    02:00Практически безоблачно+18°C75 %757 мм2.3 м/с8 %
    05:00Ясно и безоблачно+16°C85 %757 мм1.9 м/с2 %
    08:00Ясно и безоблачно+21°C71 %757 мм2.1 м/с2 %
    11:00Небольшая облачность+24°C50 %757 мм4.1 м/с3 %
    14:00Облачно с прояснениями+26°C43 %757 мм4.6 м/с2 %
    17:00Практически безоблачно+26°C44 %757 мм5.2 м/с2 %
    20:00Ясно и безоблачно+23°C57 %757 мм2.0 м/с2 %
    23:00Облачно с прояснениями+18°C70 %758 мм2.4 м/с2 %
  • 19июля
    Пятница
    +13°
    +26°
    Ясно и безоблачно
    ВремяПогодаТемператураВлажностьДавлениеВетер, м/сВероятность осадков
    02:00Небольшая облачность+17°C82 %758 мм2.8 м/с2 %
    05:00Облачно с прояснениями+14°C95 %758 мм1.4 м/с2 %
    08:00Ясно и безоблачно+20°C72 %758 мм2.0 м/с2 %
    11:00Ясно и безоблачно+24°C49 %758 мм4.3 м/с2 %
    14:00Ясно и безоблачно+25°C44 %757 мм4.8 м/с2 %
    17:00Ясно и безоблачно+26°C41 %756 мм4.5 м/с2 %
    20:00Ясно и безоблачно+23°C52 %755 мм2.4 м/с2 %
    23:00Ясно и безоблачно+18°C65 %755 мм2.1 м/с2 %
  • 20июля
    Суббота
    +14°
    +27°
    Облачно с прояснениями
    ВремяПогодаТемператураВлажностьДавлениеВетер, м/сВероятность осадков
    02:00Практически безоблачно+15°C76 %755 мм2.1 м/с2 %
    05:00Ясно и безоблачно+13°C93 %754 мм2.2 м/с2 %
    08:00Небольшая облачность+19°C70 %754 мм0.7 м/с2 %
    11:00Облачно с прояснениями+23°C48 %753 мм1.9 м/с2 %
    14:00Облачно с прояснениями+26°C39 %752 мм1.8 м/с2 %
    17:00Облачно с прояснениями+27°C36 %751 мм2.0 м/с2 %
    20:00Небольшая облачность+23°C61 %751 мм1.8 м/с2 %
    23:00Ясно и безоблачно+19°C55 %751 мм2.6 м/с2 %
  • 21июля
    Воскресенье
    +14°
    +31°
    Ясно и безоблачно
    ВремяПогодаТемператураВлажностьДавлениеВетер, м/сВероятность осадков
    02:00Ясно и безоблачно+17°C72 %750 мм2.4 м/с2 %
    05:00Ясно и безоблачно+15°C89 %750 мм1.9 м/с2 %
    08:00Ясно и безоблачно+20°C69 %750 мм0.4 м/с2 %
    11:00Ясно и безоблачно+26°C42 %750 мм1.3 м/с2 %
    14:00Ясно и безоблачно+28°C37 %749 мм0.4 м/с2 %
    17:00Облачно с прояснениями+30°C33 %748 мм0.3 м/с2 %
    20:00Ясно и безоблачно+26°C55 %748 мм0.8 м/с2 %
    23:00Ясно и безоблачно+19°C63 %748 мм2.0 м/с2 %
  • 22июля
    Понедельник
    +15°
    +29°
    Практически безоблачно
    ВремяПогодаТемператураВлажностьДавлениеВетер, м/сВероятность осадков
    02:00Ясно и безоблачно+18°C66 %748 мм2.1 м/с2 %
    05:00Ясно и безоблачно+15°C76 %748 мм1.7 м/с2 %
    08:00Ясно и безоблачно+22°C60 %749 мм1.1 м/с2 %
    11:00Ясно и безоблачно+28°C38 %749 мм1.0 м/с9 %
    14:00Практически безоблачно+28°C31 %749 мм2.0 м/с22 %
    17:00Небольшая облачность+28°C29 %748 мм3.2 м/с32 %
    20:00Ясно и безоблачно+24°C44 %749 мм1.9 м/с26 %
    23:00Небольшая облачность+20°C63 %749 мм2.1 м/с23 %
Мы используем cookies
Соглашаюсь